createdAt,value
2023-03-28T00:00:46.480Z,0.00
2023-03-28T00:01:46.462Z,0.00
2023-03-28T00:02:46.555Z,0.00
2023-03-28T00:03:46.483Z,0.00
2023-03-28T00:04:46.431Z,0.00
2023-03-28T00:05:46.455Z,0.00
2023-03-28T00:06:46.406Z,0.00
2023-03-28T00:07:46.400Z,0.00
2023-03-28T00:08:46.399Z,0.00
2023-03-28T00:09:46.373Z,0.00
2023-03-28T00:10:46.367Z,0.00
2023-03-28T00:11:46.351Z,0.00
2023-03-28T00:12:46.343Z,0.00
2023-03-28T00:13:46.333Z,0.00
2023-03-28T00:14:46.317Z,0.00
2023-03-28T00:15:46.355Z,0.00
2023-03-28T00:16:46.300Z,0.00
2023-03-28T00:17:46.325Z,0.00
2023-03-28T00:18:46.270Z,0.00
2023-03-28T00:19:46.269Z,0.00
2023-03-28T00:20:46.249Z,0.00
2023-03-28T00:21:46.240Z,0.00
2023-03-28T00:22:46.229Z,0.00
2023-03-28T00:23:46.220Z,0.00
2023-03-28T00:24:46.207Z,0.00
2023-03-28T00:25:46.228Z,0.00
2023-03-28T00:26:46.180Z,0.00
2023-03-28T00:27:46.175Z,0.00
2023-03-28T00:28:46.176Z,0.00
2023-03-28T00:29:46.146Z,0.00
2023-03-28T00:30:46.135Z,0.00
2023-03-28T00:31:46.246Z,0.00
2023-03-28T00:32:46.124Z,0.00
2023-03-28T00:33:46.106Z,0.00
2023-03-28T00:34:46.090Z,0.00
2023-03-28T00:35:46.124Z,0.00
2023-03-28T00:36:46.075Z,0.00
2023-03-28T00:37:46.094Z,0.00
2023-03-28T00:38:46.067Z,0.00
2023-03-28T00:39:46.032Z,0.00
2023-03-28T00:40:46.025Z,0.00
2023-03-28T00:41:46.012Z,0.00
2023-03-28T00:42:45.999Z,0.00
2023-03-28T00:43:45.990Z,0.00
2023-03-28T00:44:45.982Z,0.00
2023-03-28T00:45:48.809Z,0.00
2023-03-28T00:46:45.970Z,0.00
2023-03-28T00:47:46.086Z,0.00
2023-03-28T00:48:45.940Z,0.00
2023-03-28T00:49:45.921Z,0.00
2023-03-28T00:50:45.923Z,0.00
2023-03-28T00:51:45.897Z,0.00
2023-03-28T00:52:45.886Z,0.00
2023-03-28T00:53:45.874Z,0.00
2023-03-28T00:54:45.866Z,0.00
2023-03-28T00:55:45.850Z,0.00
2023-03-28T00:56:45.868Z,0.00
2023-03-28T00:57:45.827Z,0.00
2023-03-28T00:58:45.821Z,0.00
2023-03-28T00:59:45.809Z,0.00
2023-03-28T01:00:45.791Z,0.00
2023-03-28T01:01:45.854Z,0.00
2023-03-28T01:02:46.003Z,0.00
2023-03-28T01:03:45.853Z,0.00
2023-03-28T01:04:45.745Z,0.00
2023-03-28T01:05:45.742Z,0.00
2023-03-28T01:06:45.718Z,0.00
2023-03-28T01:07:45.709Z,0.00
2023-03-28T01:08:45.702Z,0.00
2023-03-28T01:09:45.700Z,0.00
2023-03-28T01:10:45.690Z,0.00
2023-03-28T01:11:45.661Z,0.00
2023-03-28T01:12:45.652Z,0.00
2023-03-28T01:13:45.652Z,0.00
2023-03-28T01:14:45.637Z,0.00
2023-03-28T01:15:45.659Z,0.00
2023-03-28T01:16:45.604Z,0.00
2023-03-28T01:17:45.626Z,0.00
2023-03-28T01:18:45.581Z,0.00
2023-03-28T01:19:45.592Z,0.00
2023-03-28T01:20:45.561Z,0.00
2023-03-28T01:21:45.549Z,0.00
2023-03-28T01:22:56.315Z,0.00
2023-03-28T01:23:45.529Z,0.00
2023-03-28T01:24:45.512Z,0.00
2023-03-28T01:25:45.502Z,0.00
2023-03-28T01:26:45.493Z,0.00
2023-03-28T01:27:45.477Z,0.00
2023-03-28T01:28:45.478Z,0.00
2023-03-28T01:29:45.461Z,0.00
2023-03-28T01:30:45.442Z,0.00
2023-03-28T01:31:45.523Z,0.00
2023-03-28T01:32:45.474Z,0.00
2023-03-28T01:33:45.420Z,0.00
2023-03-28T01:34:45.403Z,0.00
2023-03-28T01:35:45.443Z,0.00
2023-03-28T01:36:45.388Z,0.00
2023-03-28T01:37:45.364Z,0.00
2023-03-28T01:38:45.354Z,0.00
2023-03-28T01:39:45.346Z,0.00
2023-03-28T01:40:45.331Z,0.00
2023-03-28T01:41:45.322Z,0.00
2023-03-28T01:42:45.307Z,0.00
2023-03-28T01:43:45.293Z,0.00
2023-03-28T01:44:45.291Z,0.00
2023-03-28T01:45:45.301Z,0.00
2023-03-28T01:46:45.258Z,0.00
2023-03-28T01:47:45.301Z,0.00
2023-03-28T01:48:45.237Z,0.00
2023-03-28T01:49:45.227Z,0.00
2023-03-28T01:50:45.228Z,0.00
2023-03-28T01:51:45.230Z,0.00
2023-03-28T01:52:45.194Z,0.00
2023-03-28T01:53:45.187Z,0.00
2023-03-28T01:54:45.167Z,0.00
2023-03-28T01:55:45.165Z,0.00
2023-03-28T01:56:45.227Z,0.00
2023-03-28T01:57:45.171Z,0.00
2023-03-28T01:58:45.124Z,0.00
2023-03-28T01:59:45.110Z,0.00
2023-03-28T02:00:45.123Z,0.00
2023-03-28T02:01:45.093Z,0.00
2023-03-28T02:02:45.176Z,0.00
2023-03-28T02:03:45.065Z,0.00
2023-03-28T02:04:45.056Z,0.00
2023-03-28T02:05:45.052Z,0.00
2023-03-28T02:06:45.031Z,0.00
2023-03-28T02:07:45.045Z,0.00
2023-03-28T02:08:45.014Z,0.00
2023-03-28T02:09:45.009Z,0.00
2023-03-28T02:10:44.991Z,0.00
2023-03-28T02:11:44.976Z,0.00
2023-03-28T02:12:44.966Z,0.00
2023-03-28T02:13:44.980Z,0.00
2023-03-28T02:14:44.948Z,0.00
2023-03-28T02:15:44.940Z,0.00
2023-03-28T02:16:44.994Z,0.00
2023-03-28T02:17:44.938Z,0.00
2023-03-28T02:18:44.914Z,0.00
2023-03-28T02:19:44.894Z,0.00
2023-03-28T02:20:44.878Z,0.00
2023-03-28T02:21:44.868Z,0.00
2023-03-28T02:22:44.856Z,0.00
2023-03-28T02:23:44.869Z,0.00
2023-03-28T02:24:44.839Z,0.00
2023-03-28T02:25:44.824Z,0.00
2023-03-28T02:26:44.821Z,0.00
2023-03-28T02:27:44.818Z,0.00
2023-03-28T02:28:44.813Z,0.00
2023-03-28T02:29:44.786Z,0.00
2023-03-28T02:30:44.772Z,0.00
2023-03-28T02:31:44.794Z,0.00
2023-03-28T02:32:44.774Z,0.00
2023-03-28T02:33:44.744Z,0.00
2023-03-28T02:34:44.734Z,0.00
2023-03-28T02:35:44.750Z,0.00
2023-03-28T02:36:44.702Z,0.00
2023-03-28T02:37:44.743Z,0.00
2023-03-28T02:38:44.677Z,0.00
2023-03-28T02:39:44.707Z,0.00
2023-03-28T02:40:44.662Z,0.00
2023-03-28T02:41:44.646Z,0.00
2023-03-28T02:42:44.641Z,0.00
2023-03-28T02:43:44.628Z,0.00
2023-03-28T02:44:44.610Z,0.00
2023-03-28T02:45:44.630Z,0.00
2023-03-28T02:46:44.594Z,0.00
2023-03-28T02:47:44.618Z,0.00
2023-03-28T02:48:44.568Z,0.00
2023-03-28T02:49:50.284Z,0.00
2023-03-28T02:50:44.542Z,0.00
2023-03-28T02:51:44.530Z,0.00
2023-03-28T02:52:44.523Z,0.00
2023-03-28T02:53:44.602Z,0.00
2023-03-28T02:54:44.499Z,0.00
2023-03-28T02:55:44.517Z,0.00
2023-03-28T02:56:44.514Z,0.00
2023-03-28T02:57:44.478Z,0.00
2023-03-28T02:58:44.453Z,0.00
2023-03-28T02:59:44.448Z,0.00
2023-03-28T03:00:44.434Z,0.00
2023-03-28T03:01:44.508Z,0.00
2023-03-28T03:02:44.489Z,0.00
2023-03-28T03:03:46.436Z,0.00
2023-03-28T03:04:44.395Z,0.00
2023-03-28T03:05:44.382Z,0.00
2023-03-28T03:06:44.373Z,0.00
2023-03-28T03:07:44.379Z,0.00
2023-03-28T03:08:44.360Z,0.00
2023-03-28T03:09:45.838Z,0.00
2023-03-28T03:10:44.319Z,0.00
2023-03-28T03:11:46.337Z,0.00
2023-03-28T03:12:44.313Z,0.00
2023-03-28T03:13:44.295Z,0.00
2023-03-28T03:14:44.298Z,0.00
2023-03-28T03:15:44.345Z,0.00
2023-03-28T03:16:44.253Z,0.00
2023-03-28T03:17:44.298Z,0.00
2023-03-28T03:18:44.234Z,0.00
2023-03-28T03:19:44.218Z,0.00
2023-03-28T03:20:44.205Z,0.00
2023-03-28T03:21:44.192Z,0.00
2023-03-28T03:22:46.199Z,0.00
2023-03-28T03:23:44.180Z,0.00
2023-03-28T03:24:44.159Z,0.00
2023-03-28T03:25:44.154Z,0.00
2023-03-28T03:26:44.145Z,0.00
2023-03-28T03:27:44.159Z,0.00
2023-03-28T03:28:44.127Z,0.00
2023-03-28T03:29:44.101Z,0.00
2023-03-28T03:30:44.088Z,0.00
2023-03-28T03:31:44.104Z,0.00
2023-03-28T03:32:44.213Z,0.00
2023-03-28T03:33:44.054Z,0.00
2023-03-28T03:34:44.090Z,0.00
2023-03-28T03:35:44.048Z,0.00
2023-03-28T03:36:44.057Z,0.00
2023-03-28T03:37:44.008Z,0.00
2023-03-28T03:38:44.098Z,0.00
2023-03-28T03:39:43.996Z,0.00
2023-03-28T03:40:44.000Z,0.00
2023-03-28T03:41:43.967Z,0.00
2023-03-28T03:42:43.990Z,0.00
2023-03-28T03:43:46.647Z,0.00
2023-03-28T03:44:43.962Z,0.00
2023-03-28T03:45:43.932Z,0.00
2023-03-28T03:46:44.054Z,0.00
2023-03-28T03:47:43.949Z,0.00
2023-03-28T03:48:50.105Z,0.00
2023-03-28T03:49:43.881Z,0.00
2023-03-28T03:50:43.924Z,0.00
2023-03-28T03:51:43.862Z,0.00
2023-03-28T03:52:43.847Z,0.00
2023-03-28T03:53:43.837Z,0.00
2023-03-28T03:54:43.853Z,0.00
2023-03-28T03:55:43.807Z,0.00
2023-03-28T03:56:43.896Z,0.00
2023-03-28T03:57:43.781Z,0.00
2023-03-28T03:58:43.768Z,0.00
2023-03-28T03:59:43.805Z,0.00
2023-03-28T04:00:43.775Z,0.00
2023-03-28T04:01:43.769Z,0.00
2023-03-28T04:02:43.895Z,0.00
2023-03-28T04:03:43.761Z,0.00
2023-03-28T04:04:43.728Z,0.00
2023-03-28T04:05:43.693Z,0.00
2023-03-28T04:06:43.708Z,0.00
2023-03-28T04:07:43.671Z,0.00
2023-03-28T04:08:43.672Z,0.00
2023-03-28T04:09:43.644Z,0.00
2023-03-28T04:10:45.051Z,0.00
2023-03-28T04:11:43.623Z,0.00
2023-03-28T04:12:43.682Z,0.00
2023-03-28T04:13:43.598Z,0.00
2023-03-28T04:14:43.595Z,0.00
2023-03-28T04:15:43.651Z,0.00
2023-03-28T04:16:43.629Z,0.00
2023-03-28T04:17:43.596Z,0.00
2023-03-28T04:18:43.578Z,0.00
2023-03-28T04:19:43.538Z,0.00
2023-03-28T04:20:43.552Z,0.00
2023-03-28T04:21:43.506Z,0.00
2023-03-28T04:22:46.238Z,0.00
2023-03-28T04:23:43.639Z,0.00
2023-03-28T04:24:43.524Z,4.00
2023-03-28T04:25:43.470Z,0.00
2023-03-28T04:26:43.463Z,0.00
2023-03-28T04:27:43.444Z,4.00
2023-03-28T04:28:43.444Z,0.00
2023-03-28T04:29:43.420Z,4.00
2023-03-28T04:30:43.475Z,4.00
2023-03-28T04:31:45.471Z,4.00
2023-03-28T04:32:43.463Z,8.00
2023-03-28T04:33:43.383Z,8.00
2023-03-28T04:34:43.366Z,8.00
2023-03-28T04:35:45.391Z,12.00
2023-03-28T04:36:45.339Z,12.00
2023-03-28T04:37:43.336Z,12.00
2023-03-28T04:38:43.320Z,12.00
2023-03-28T04:39:43.307Z,16.00
2023-03-28T04:40:43.299Z,16.00
2023-03-28T04:41:43.337Z,16.00
2023-03-28T04:42:43.277Z,20.00
2023-03-28T04:43:45.264Z,16.00
2023-03-28T04:44:43.259Z,20.00
2023-03-28T04:45:45.270Z,20.00
2023-03-28T04:46:43.234Z,20.00
2023-03-28T04:47:43.293Z,20.00
2023-03-28T04:48:43.212Z,20.00
2023-03-28T04:49:45.197Z,24.00
2023-03-28T04:50:43.201Z,24.00
2023-03-28T04:51:43.191Z,28.00
2023-03-28T04:52:43.161Z,28.00
2023-03-28T04:53:43.154Z,36.00
2023-03-28T04:54:43.139Z,40.00
2023-03-28T04:55:43.127Z,40.00
2023-03-28T04:56:43.195Z,48.00
2023-03-28T04:57:43.106Z,48.00
2023-03-28T04:58:43.116Z,52.00
2023-03-28T04:59:43.082Z,48.00
2023-03-28T05:00:45.072Z,48.00
2023-03-28T05:01:43.195Z,60.00
2023-03-28T05:02:43.098Z,68.00
2023-03-28T05:03:43.091Z,84.00
2023-03-28T05:04:43.023Z,104.00
2023-03-28T05:05:45.015Z,124.00
2023-03-28T05:06:43.005Z,144.00
2023-03-28T05:07:42.998Z,160.00
2023-03-28T05:08:42.988Z,176.00
2023-03-28T05:09:42.970Z,180.00
2023-03-28T05:10:42.953Z,204.00
2023-03-28T05:11:42.951Z,216.00
2023-03-28T05:12:42.937Z,260.00
2023-03-28T05:13:42.928Z,296.00
2023-03-28T05:14:42.952Z,304.00
2023-03-28T05:15:42.898Z,320.00
2023-03-28T05:16:42.931Z,344.00
2023-03-28T05:17:42.937Z,392.00
2023-03-28T05:18:42.866Z,384.00
2023-03-28T05:19:42.876Z,376.00
2023-03-28T05:20:42.835Z,364.00
2023-03-28T05:21:42.831Z,304.00
2023-03-28T05:22:42.819Z,280.00
2023-03-28T05:23:42.808Z,292.00
2023-03-28T05:24:42.794Z,372.00
2023-03-28T05:25:42.788Z,396.00
2023-03-28T05:26:42.776Z,324.00
2023-03-28T05:27:42.758Z,308.00
2023-03-28T05:28:42.746Z,336.00
2023-03-28T05:29:42.739Z,436.00
2023-03-28T05:30:42.726Z,392.00
2023-03-28T05:31:42.725Z,452.00
2023-03-28T05:32:42.777Z,412.00
2023-03-28T05:33:42.692Z,456.00
2023-03-28T05:34:42.682Z,516.00
2023-03-28T05:35:42.731Z,584.00
2023-03-28T05:36:42.662Z,800.00
2023-03-28T05:37:44.771Z,712.00
2023-03-28T05:38:42.645Z,992.00
2023-03-28T05:39:42.632Z,656.00
2023-03-28T05:40:42.629Z,604.00
2023-03-28T05:41:42.601Z,648.00
2023-03-28T05:42:42.594Z,740.00
2023-03-28T05:43:42.589Z,1968.00
2023-03-28T05:44:42.567Z,4080.00
2023-03-28T05:45:42.623Z,3924.00
2023-03-28T05:46:42.544Z,4800.00
2023-03-28T05:47:42.545Z,1360.00
2023-03-28T05:48:42.536Z,3560.00
2023-03-28T05:49:42.511Z,4820.00
2023-03-28T05:50:42.505Z,4208.00
2023-03-28T05:51:42.516Z,5024.00
2023-03-28T05:52:42.488Z,5612.00
2023-03-28T05:53:42.464Z,6076.00
2023-03-28T05:54:50.390Z,5944.00
2023-03-28T05:55:42.457Z,4968.00
2023-03-28T05:56:42.500Z,4332.00
2023-03-28T05:57:42.428Z,4916.00
2023-03-28T05:58:42.415Z,5736.00
2023-03-28T05:59:42.401Z,6404.00
2023-03-28T06:00:42.394Z,6472.00
2023-03-28T06:01:43.135Z,6188.00
2023-03-28T06:02:42.477Z,6380.00
2023-03-28T06:03:42.386Z,6588.00
2023-03-28T06:04:42.387Z,7184.00
2023-03-28T06:05:42.331Z,6980.00
2023-03-28T06:06:42.317Z,3548.00
2023-03-28T06:07:43.146Z,6336.00
2023-03-28T06:08:42.517Z,6872.00
2023-03-28T06:09:42.286Z,6824.00
2023-03-28T06:10:42.303Z,7448.00
2023-03-28T06:11:42.277Z,6092.00
2023-03-28T06:12:42.259Z,7064.00
2023-03-28T06:13:42.237Z,6484.00
2023-03-28T06:14:42.230Z,5896.00
2023-03-28T06:15:42.218Z,7088.00
2023-03-28T06:16:42.232Z,7948.00
2023-03-28T06:17:42.266Z,6020.00
2023-03-28T06:18:42.181Z,4860.00
2023-03-28T06:19:42.244Z,4832.00
2023-03-28T06:20:42.158Z,5340.00
2023-03-28T06:21:42.151Z,4508.00
2023-03-28T06:22:42.139Z,7020.00
2023-03-28T06:23:42.152Z,6888.00
2023-03-28T06:24:42.117Z,7104.00
2023-03-28T06:25:42.107Z,5992.00
2023-03-28T06:26:42.089Z,5584.00
2023-03-28T06:27:42.087Z,6208.00
2023-03-28T06:28:42.070Z,5828.00
2023-03-28T06:29:42.058Z,4260.00
2023-03-28T06:30:42.057Z,4656.00
2023-03-28T06:31:42.076Z,6220.00
2023-03-28T06:32:42.038Z,7476.00
2023-03-28T06:33:42.020Z,8340.00
2023-03-28T06:34:41.999Z,10712.00
2023-03-28T06:35:42.036Z,10124.00
2023-03-28T06:36:41.984Z,7752.00
2023-03-28T06:37:41.995Z,8676.00
2023-03-28T06:38:41.976Z,10888.00
2023-03-28T06:39:41.978Z,10148.00
2023-03-28T06:40:41.953Z,10528.00
2023-03-28T06:41:41.929Z,16488.00
2023-03-28T06:42:41.918Z,16240.00
2023-03-28T06:43:42.005Z,11240.00
2023-03-28T06:44:41.897Z,9036.00
2023-03-28T06:45:41.947Z,10236.00
2023-03-28T06:46:41.899Z,10416.00
2023-03-28T06:47:41.857Z,11720.00
2023-03-28T06:48:41.850Z,15384.00
2023-03-28T06:49:41.889Z,17760.00
2023-03-28T06:50:41.827Z,17856.00
2023-03-28T06:51:41.828Z,17856.00
2023-03-28T06:52:41.807Z,19680.00
2023-03-28T06:53:41.790Z,18912.00
2023-03-28T06:54:41.785Z,9972.00
2023-03-28T06:55:41.796Z,5784.00
2023-03-28T06:56:41.793Z,5736.00
2023-03-28T06:57:41.750Z,6164.00
2023-03-28T06:58:41.743Z,5924.00
2023-03-28T06:59:41.728Z,5780.00
2023-03-28T07:00:41.713Z,5860.00
2023-03-28T07:01:41.741Z,5416.00
2023-03-28T07:02:41.810Z,5344.00
2023-03-28T07:03:41.778Z,5856.00
2023-03-28T07:04:41.676Z,5888.00
2023-03-28T07:05:41.666Z,5816.00
2023-03-28T07:06:41.644Z,5756.00
2023-03-28T07:07:41.635Z,5756.00
2023-03-28T07:08:41.625Z,5716.00
2023-03-28T07:09:41.636Z,5720.00
2023-03-28T07:10:41.618Z,5688.00
2023-03-28T07:11:41.685Z,5668.00
2023-03-28T07:12:41.605Z,5660.00
2023-03-28T07:13:41.596Z,5656.00
2023-03-28T07:14:41.574Z,5660.00
2023-03-28T07:15:41.618Z,5716.00
2023-03-28T07:16:41.638Z,5784.00
2023-03-28T07:17:41.559Z,5868.00
2023-03-28T07:18:41.512Z,5960.00
2023-03-28T07:19:41.500Z,5936.00
2023-03-28T07:20:41.653Z,5960.00
2023-03-28T07:21:41.481Z,6016.00
2023-03-28T07:22:41.470Z,6128.00
2023-03-28T07:23:41.458Z,6256.00
2023-03-28T07:24:41.443Z,6320.00
2023-03-28T07:25:41.432Z,6388.00
2023-03-28T07:26:41.424Z,6420.00
2023-03-28T07:27:41.439Z,6428.00
2023-03-28T07:28:41.396Z,6488.00
2023-03-28T07:29:41.400Z,6496.00
2023-03-28T07:30:41.391Z,6448.00
2023-03-28T07:31:41.452Z,6476.00
2023-03-28T07:32:53.017Z,6464.00
2023-03-28T07:33:41.375Z,6496.00
2023-03-28T07:34:41.333Z,6544.00
2023-03-28T07:35:41.333Z,6656.00
2023-03-28T07:36:41.307Z,6724.00
2023-03-28T07:37:41.299Z,6732.00
2023-03-28T07:38:41.292Z,6804.00
2023-03-28T07:39:41.278Z,6868.00
2023-03-28T07:40:41.260Z,7008.00
2023-03-28T07:41:41.255Z,7092.00
2023-03-28T07:42:41.246Z,7228.00
2023-03-28T07:43:41.322Z,7356.00
2023-03-28T07:44:42.484Z,7460.00
2023-03-28T07:45:41.253Z,7564.00
2023-03-28T07:46:41.194Z,7580.00
2023-03-28T07:47:41.245Z,7516.00
2023-03-28T07:48:41.170Z,7552.00
2023-03-28T07:49:41.236Z,7584.00
2023-03-28T07:50:41.153Z,7636.00
2023-03-28T07:51:41.137Z,7600.00
2023-03-28T07:52:41.129Z,7592.00
2023-03-28T07:53:41.119Z,7632.00
2023-03-28T07:54:41.138Z,7632.00
2023-03-28T07:55:54.423Z,7580.00
2023-03-28T07:56:41.171Z,7628.00
2023-03-28T07:57:41.073Z,7684.00
2023-03-28T07:58:41.071Z,7692.00
2023-03-28T07:59:41.080Z,7780.00
2023-03-28T08:00:41.047Z,7820.00
2023-03-28T08:01:41.030Z,7964.00
2023-03-28T08:02:44.694Z,8048.00
2023-03-28T08:03:41.043Z,8052.00
2023-03-28T08:04:40.987Z,8084.00
2023-03-28T08:05:41.009Z,8136.00
2023-03-28T08:06:40.976Z,8164.00
2023-03-28T08:07:40.952Z,8232.00
2023-03-28T08:08:40.940Z,8404.00
2023-03-28T08:09:40.942Z,8516.00
2023-03-28T08:10:40.933Z,8672.00
2023-03-28T08:11:40.914Z,8772.00
2023-03-28T08:12:40.898Z,8776.00
2023-03-28T08:13:40.905Z,8912.00
2023-03-28T08:14:40.882Z,8912.00
2023-03-28T08:15:40.939Z,8940.00
2023-03-28T08:16:40.852Z,8880.00
2023-03-28T08:17:40.927Z,8912.00
2023-03-28T08:18:40.830Z,8956.00
2023-03-28T08:19:40.817Z,9048.00
2023-03-28T08:20:40.813Z,9136.00
2023-03-28T08:21:40.845Z,9220.00
2023-03-28T08:22:40.791Z,9368.00
2023-03-28T08:23:40.778Z,9556.00
2023-03-28T08:24:40.765Z,9908.00
2023-03-28T08:25:40.749Z,10148.00
2023-03-28T08:26:40.737Z,10284.00
2023-03-28T08:27:40.743Z,10492.00
2023-03-28T08:28:40.716Z,10572.00
2023-03-28T08:29:40.704Z,10776.00
2023-03-28T08:30:40.697Z,11076.00
2023-03-28T08:31:40.749Z,11284.00
2023-03-28T08:32:40.735Z,11752.00
2023-03-28T08:33:40.663Z,12140.00
2023-03-28T08:34:40.675Z,12428.00
2023-03-28T08:35:40.672Z,12680.00
2023-03-28T08:36:40.624Z,11368.00
2023-03-28T08:37:40.613Z,1860.00
2023-03-28T08:38:40.601Z,1264.00
2023-03-28T08:39:40.592Z,12404.00
2023-03-28T08:40:40.591Z,12608.00
2023-03-28T08:41:40.577Z,8224.00
2023-03-28T08:42:40.552Z,12468.00
2023-03-28T08:43:40.563Z,11920.00
2023-03-28T08:44:40.546Z,11084.00
2023-03-28T08:45:40.520Z,11576.00
2023-03-28T08:46:40.558Z,4092.00
2023-03-28T08:47:40.568Z,5840.00
2023-03-28T08:48:40.569Z,2080.00
2023-03-28T08:49:40.480Z,2268.00
2023-03-28T08:50:40.470Z,13180.00
2023-03-28T08:51:40.463Z,12692.00
2023-03-28T08:52:40.440Z,2140.00
2023-03-28T08:53:40.431Z,2356.00
2023-03-28T08:54:40.422Z,3456.00
2023-03-28T08:55:40.425Z,3844.00
2023-03-28T08:56:41.052Z,3632.00
2023-03-28T08:57:40.384Z,3376.00
2023-03-28T08:58:40.374Z,3872.00
2023-03-28T08:59:40.359Z,3004.00
2023-03-28T09:00:40.378Z,4464.00
2023-03-28T09:01:40.357Z,12068.00
2023-03-28T09:02:40.382Z,12464.00
2023-03-28T09:03:40.488Z,12376.00
2023-03-28T09:04:40.311Z,3840.00
2023-03-28T09:05:40.303Z,12160.00
2023-03-28T09:06:40.284Z,12584.00
2023-03-28T09:07:40.324Z,12712.00
2023-03-28T09:08:40.262Z,10916.00
2023-03-28T09:09:40.259Z,13540.00
2023-03-28T09:10:40.248Z,3356.00
2023-03-28T09:11:40.225Z,12572.00
2023-03-28T09:12:40.220Z,12724.00
2023-03-28T09:13:40.210Z,12780.00
2023-03-28T09:14:40.194Z,13152.00
2023-03-28T09:15:40.189Z,13044.00
2023-03-28T09:16:40.218Z,13128.00
2023-03-28T09:17:40.174Z,13160.00
2023-03-28T09:18:40.152Z,13684.00
2023-03-28T09:19:47.922Z,14336.00
2023-03-28T09:20:42.632Z,14708.00
2023-03-28T09:21:40.112Z,14200.00
2023-03-28T09:22:40.108Z,14176.00
2023-03-28T09:23:40.096Z,14396.00
2023-03-28T09:24:40.080Z,5340.00
2023-03-28T09:25:40.071Z,10392.00
2023-03-28T09:26:40.063Z,12728.00
2023-03-28T09:27:40.327Z,13224.00
2023-03-28T09:28:40.042Z,12820.00
2023-03-28T09:29:40.050Z,2704.00
2023-03-28T09:30:40.024Z,3812.00
2023-03-28T09:31:40.094Z,12480.00
2023-03-28T09:32:40.031Z,13724.00
2023-03-28T09:33:39.987Z,13696.00
2023-03-28T09:34:39.975Z,13288.00
2023-03-28T09:35:40.055Z,13592.00
2023-03-28T09:36:48.385Z,13696.00
2023-03-28T09:37:39.934Z,12820.00
2023-03-28T09:38:39.925Z,13972.00
2023-03-28T09:39:39.920Z,14016.00
2023-03-28T09:40:39.902Z,12388.00
2023-03-28T09:41:39.894Z,12676.00
2023-03-28T09:42:39.877Z,12532.00
2023-03-28T09:43:39.873Z,3424.00
2023-03-28T09:44:52.993Z,2904.00
2023-03-28T09:45:39.918Z,3352.00
2023-03-28T09:46:39.840Z,3612.00
2023-03-28T09:47:39.874Z,3864.00
2023-03-28T09:48:39.906Z,13140.00
2023-03-28T09:49:39.802Z,11012.00
2023-03-28T09:50:39.787Z,14516.00
2023-03-28T09:51:39.832Z,4668.00
2023-03-28T09:52:39.770Z,7108.00
2023-03-28T09:53:39.758Z,6804.00
2023-03-28T09:54:39.746Z,6460.00
2023-03-28T09:55:39.730Z,2724.00
2023-03-28T09:56:39.760Z,2628.00
2023-03-28T09:57:39.710Z,2720.00
2023-03-28T09:58:39.700Z,2816.00
2023-03-28T09:59:39.685Z,3328.00
2023-03-28T10:00:39.677Z,3964.00
2023-03-28T10:01:39.682Z,10776.00
2023-03-28T10:02:39.762Z,14528.00
2023-03-28T10:03:39.644Z,8980.00
2023-03-28T10:04:39.772Z,3424.00
2023-03-28T10:05:39.619Z,10340.00
2023-03-28T10:06:39.622Z,2424.00
2023-03-28T10:07:39.618Z,1952.00
2023-03-28T10:08:39.588Z,1824.00
2023-03-28T10:09:39.576Z,2256.00
2023-03-28T10:10:39.569Z,2636.00
2023-03-28T10:11:39.564Z,2596.00
2023-03-28T10:12:39.539Z,2828.00
2023-03-28T10:13:39.533Z,3660.00
2023-03-28T10:14:39.519Z,3320.00
2023-03-28T10:15:39.555Z,2720.00
2023-03-28T10:16:39.495Z,3096.00
2023-03-28T10:17:39.505Z,4004.00
2023-03-28T10:18:39.472Z,8012.00
2023-03-28T10:19:39.462Z,3900.00
2023-03-28T10:20:39.454Z,3020.00
2023-03-28T10:21:39.439Z,2800.00
2023-03-28T10:22:39.428Z,2384.00
2023-03-28T10:23:39.467Z,2436.00
2023-03-28T10:24:39.413Z,2972.00
2023-03-28T10:25:39.395Z,3208.00
2023-03-28T10:26:39.383Z,11668.00
2023-03-28T10:27:39.377Z,2816.00
2023-03-28T10:28:39.372Z,2644.00
2023-03-28T10:29:39.346Z,2944.00
2023-03-28T10:30:39.336Z,3428.00
2023-03-28T10:31:39.430Z,3544.00
2023-03-28T10:32:39.379Z,4468.00
2023-03-28T10:33:39.308Z,13456.00
2023-03-28T10:34:39.289Z,4008.00
2023-03-28T10:35:39.323Z,3948.00
2023-03-28T10:36:39.272Z,16388.00
2023-03-28T10:37:39.260Z,4548.00
2023-03-28T10:38:39.249Z,10128.00
2023-03-28T10:39:39.270Z,6964.00
2023-03-28T10:40:39.257Z,5912.00
2023-03-28T10:41:39.213Z,6300.00
2023-03-28T10:42:39.212Z,19136.00
2023-03-28T10:43:39.213Z,8808.00
2023-03-28T10:44:39.211Z,8708.00
2023-03-28T10:45:39.170Z,5512.00
2023-03-28T10:46:39.216Z,16360.00
2023-03-28T10:47:39.182Z,15832.00
2023-03-28T10:48:39.400Z,10536.00
2023-03-28T10:49:39.134Z,7572.00
2023-03-28T10:50:39.124Z,17240.00
2023-03-28T10:51:39.103Z,16444.00
2023-03-28T10:52:39.098Z,14112.00
2023-03-28T10:53:39.078Z,10372.00
2023-03-28T10:54:39.065Z,17840.00
2023-03-28T10:55:39.181Z,18272.00
2023-03-28T10:56:39.293Z,19648.00
2023-03-28T10:57:39.035Z,20800.00
2023-03-28T10:58:39.030Z,20768.00
2023-03-28T10:59:39.014Z,14256.00
2023-03-28T11:00:39.002Z,18560.00
2023-03-28T11:01:39.012Z,17532.00
2023-03-28T11:02:39.109Z,6536.00
2023-03-28T11:03:39.045Z,16868.00
2023-03-28T11:04:38.950Z,15332.00
2023-03-28T11:05:38.943Z,3720.00
2023-03-28T11:06:38.934Z,2428.00
2023-03-28T11:07:38.923Z,5360.00
2023-03-28T11:08:38.917Z,3908.00
2023-03-28T11:09:38.907Z,3248.00
2023-03-28T11:10:38.885Z,9600.00
2023-03-28T11:11:38.911Z,5492.00
2023-03-28T11:12:51.299Z,4272.00
2023-03-28T11:13:38.851Z,2568.00
2023-03-28T11:14:38.839Z,2372.00
2023-03-28T11:15:38.830Z,10804.00
2023-03-28T11:16:38.871Z,17148.00
2023-03-28T11:17:38.834Z,16368.00
2023-03-28T11:18:38.795Z,16044.00
2023-03-28T11:19:38.781Z,4196.00
2023-03-28T11:20:38.778Z,1848.00
2023-03-28T11:21:38.774Z,15744.00
2023-03-28T11:22:38.750Z,7188.00
2023-03-28T11:23:38.987Z,2268.00
2023-03-28T11:24:38.730Z,2452.00
2023-03-28T11:25:38.722Z,16768.00
2023-03-28T11:26:38.708Z,3716.00
2023-03-28T11:27:38.719Z,3604.00
2023-03-28T11:28:38.685Z,7152.00
2023-03-28T11:29:43.229Z,16580.00
2023-03-28T11:30:38.664Z,6680.00
2023-03-28T11:31:38.686Z,16116.00
2023-03-28T11:32:38.662Z,15868.00
2023-03-28T11:33:38.637Z,15500.00
2023-03-28T11:34:39.697Z,15612.00
2023-03-28T11:35:38.714Z,16288.00
2023-03-28T11:36:38.593Z,16716.00
2023-03-28T11:37:38.581Z,16152.00
2023-03-28T11:38:38.570Z,7856.00
2023-03-28T11:39:38.561Z,15556.00
2023-03-28T11:40:38.556Z,15348.00
2023-03-28T11:41:38.537Z,16196.00
2023-03-28T11:42:38.526Z,16540.00
2023-03-28T11:43:38.543Z,2560.00
2023-03-28T11:44:38.507Z,2904.00
2023-03-28T11:45:50.341Z,2500.00
2023-03-28T11:46:38.528Z,4036.00
2023-03-28T11:47:38.514Z,15652.00
2023-03-28T11:48:38.458Z,15260.00
2023-03-28T11:49:38.458Z,15296.00
2023-03-28T11:50:38.439Z,15092.00
2023-03-28T11:51:38.425Z,15032.00
2023-03-28T11:52:38.418Z,15336.00
2023-03-28T11:53:38.403Z,15396.00
2023-03-28T11:54:38.391Z,15388.00
2023-03-28T11:55:38.382Z,15740.00
2023-03-28T11:56:38.400Z,16924.00
2023-03-28T11:57:38.358Z,3236.00
2023-03-28T11:58:38.364Z,4888.00
2023-03-28T11:59:38.361Z,17652.00
2023-03-28T12:00:40.160Z,16432.00
2023-03-28T12:01:38.359Z,7892.00
2023-03-28T12:02:38.399Z,14644.00
2023-03-28T12:03:38.350Z,14048.00
2023-03-28T12:04:38.275Z,14068.00
2023-03-28T12:05:38.268Z,2464.00
2023-03-28T12:06:44.073Z,2096.00
2023-03-28T12:07:38.241Z,16264.00
2023-03-28T12:08:38.235Z,16064.00
2023-03-28T12:09:38.217Z,15272.00
2023-03-28T12:10:38.257Z,14756.00
2023-03-28T12:11:38.195Z,14580.00
2023-03-28T12:12:38.185Z,14380.00
2023-03-28T12:13:45.530Z,14188.00
2023-03-28T12:14:38.173Z,12916.00
2023-03-28T12:15:38.173Z,5704.00
2023-03-28T12:16:40.714Z,3024.00
2023-03-28T12:17:38.151Z,13744.00
2023-03-28T12:18:38.115Z,2308.00
2023-03-28T12:19:38.112Z,1988.00
2023-03-28T12:20:38.097Z,1640.00
2023-03-28T12:21:38.080Z,1932.00
2023-03-28T12:22:38.073Z,11400.00
2023-03-28T12:23:38.066Z,11784.00
2023-03-28T12:24:38.050Z,1592.00
2023-03-28T12:25:38.042Z,1904.00
2023-03-28T12:26:38.026Z,1856.00
2023-03-28T12:27:38.018Z,11560.00
2023-03-28T12:28:38.001Z,11540.00
2023-03-28T12:29:37.989Z,11664.00